sensor_id;sensor_type;location;lat;lon;timestamp;P1;durP1;ratioP1;P2;durP2;ratioP2
15996;SDS011;8103;51.340;12.326;2024-03-23T00:56:04;18.67;;;14.63;;
15996;SDS011;8103;51.340;12.326;2024-03-23T00:58:30;17.20;;;13.55;;
15996;SDS011;8103;51.340;12.326;2024-03-23T01:00:55;16.80;;;13.30;;
15996;SDS011;8103;51.340;12.326;2024-03-23T01:03:21;15.40;;;12.50;;
15996;SDS011;8103;51.340;12.326;2024-03-23T01:05:47;18.35;;;13.82;;
15996;SDS011;8103;51.340;12.326;2024-03-23T01:08:14;17.50;;;13.95;;
15996;SDS011;8103;51.340;12.326;2024-03-23T01:10:40;16.05;;;12.43;;
15996;SDS011;8103;51.340;12.326;2024-03-23T01:13:05;15.32;;;12.38;;
15996;SDS011;8103;51.340;12.326;2024-03-23T01:15:31;15.32;;;12.07;;
15996;SDS011;8103;51.340;12.326;2024-03-23T01:17:57;13.88;;;11.90;;
15996;SDS011;8103;51.340;12.326;2024-03-23T01:20:23;15.98;;;11.90;;
15996;SDS011;8103;51.340;12.326;2024-03-23T01:22:49;11.23;;;9.20;;
15996;SDS011;8103;51.340;12.326;2024-03-23T01:25:14;14.48;;;9.85;;
15996;SDS011;8103;51.340;12.326;2024-03-23T01:27:40;10.65;;;8.93;;
15996;SDS011;8103;51.340;12.326;2024-03-23T01:30:06;11.20;;;7.72;;
15996;SDS011;8103;51.340;12.326;2024-03-23T01:32:32;8.98;;;7.43;;
15996;SDS011;8103;51.340;12.326;2024-03-23T01:34:58;9.70;;;7.32;;
15996;SDS011;8103;51.340;12.326;2024-03-23T01:37:24;8.65;;;6.82;;
15996;SDS011;8103;51.340;12.326;2024-03-23T01:39:50;10.18;;;6.68;;
15996;SDS011;8103;51.340;12.326;2024-03-23T01:42:16;8.98;;;6.97;;
15996;SDS011;8103;51.340;12.326;2024-03-23T01:44:41;8.52;;;6.10;;
15996;SDS011;8103;51.340;12.326;2024-03-23T01:47:07;7.15;;;5.82;;
15996;SDS011;8103;51.340;12.326;2024-03-23T01:49:33;7.65;;;5.72;;
15996;SDS011;8103;51.340;12.326;2024-03-23T01:52:00;7.22;;;5.75;;
15996;SDS011;8103;51.340;12.326;2024-03-23T01:54:26;9.63;;;6.47;;
15996;SDS011;8103;51.340;12.326;2024-03-23T01:56:52;11.80;;;6.80;;
15996;SDS011;8103;51.340;12.326;2024-03-23T01:59:19;9.45;;;7.38;;
15996;SDS011;8103;51.340;12.326;2024-03-23T02:01:45;10.98;;;8.15;;
15996;SDS011;8103;51.340;12.326;2024-03-23T02:04:10;7.95;;;6.50;;
15996;SDS011;8103;51.340;12.326;2024-03-23T02:06:36;9.40;;;6.30;;
15996;SDS011;8103;51.340;12.326;2024-03-23T02:09:02;8.95;;;7.25;;
15996;SDS011;8103;51.340;12.326;2024-03-23T02:11:29;10.65;;;7.15;;
15996;SDS011;8103;51.340;12.326;2024-03-23T02:13:54;9.57;;;7.50;;
15996;SDS011;8103;51.340;12.326;2024-03-23T02:16:20;13.27;;;6.55;;
15996;SDS011;8103;51.340;12.326;2024-03-23T02:18:46;9.68;;;7.93;;
15996;SDS011;8103;51.340;12.326;2024-03-23T02:21:11;8.55;;;6.32;;
15996;SDS011;8103;51.340;12.326;2024-03-23T02:23:37;8.60;;;5.80;;
15996;SDS011;8103;51.340;12.326;2024-03-23T02:26:03;8.85;;;5.68;;
15996;SDS011;8103;51.340;12.326;2024-03-23T02:28:28;9.18;;;5.82;;
15996;SDS011;8103;51.340;12.326;2024-03-23T02:30:54;8.40;;;6.28;;
15996;SDS011;8103;51.340;12.326;2024-03-23T02:33:20;7.57;;;5.70;;
15996;SDS011;8103;51.340;12.326;2024-03-23T02:35:47;8.95;;;5.57;;
15996;SDS011;8103;51.340;12.326;2024-03-23T02:38:12;7.43;;;5.07;;
15996;SDS011;8103;51.340;12.326;2024-03-23T02:40:38;12.23;;;6.15;;
15996;SDS011;8103;51.340;12.326;2024-03-23T02:43:04;6.78;;;5.35;;
15996;SDS011;8103;51.340;12.326;2024-03-23T02:45:30;7.30;;;5.05;;
15996;SDS011;8103;51.340;12.326;2024-03-23T02:47:56;6.22;;;4.20;;
15996;SDS011;8103;51.340;12.326;2024-03-23T02:50:22;10.45;;;5.40;;
15996;SDS011;8103;51.340;12.326;2024-03-23T02:52:47;6.28;;;4.65;;
15996;SDS011;8103;51.340;12.326;2024-03-23T02:55:13;7.55;;;5.28;;
15996;SDS011;8103;51.340;12.326;2024-03-23T02:57:40;7.32;;;4.45;;
15996;SDS011;8103;51.340;12.326;2024-03-23T03:00:06;12.95;;;6.15;;
15996;SDS011;8103;51.340;12.326;2024-03-23T03:02:32;11.77;;;5.53;;
15996;SDS011;8103;51.340;12.326;2024-03-23T03:04:58;8.57;;;4.68;;
15996;SDS011;8103;51.340;12.326;2024-03-23T03:07:24;7.93;;;5.20;;
15996;SDS011;8103;51.340;12.326;2024-03-23T03:09:50;6.35;;;4.38;;
15996;SDS011;8103;51.340;12.326;2024-03-23T03:12:16;7.38;;;4.63;;
15996;SDS011;8103;51.340;12.326;2024-03-23T03:14:42;6.10;;;4.53;;
15996;SDS011;8103;51.340;12.326;2024-03-23T03:17:08;7.88;;;4.38;;
15996;SDS011;8103;51.340;12.326;2024-03-23T03:19:33;8.20;;;5.57;;
15996;SDS011;8103;51.340;12.326;2024-03-23T03:21:59;5.40;;;3.55;;
15996;SDS011;8103;51.340;12.326;2024-03-23T03:24:25;6.05;;;3.83;;
15996;SDS011;8103;51.340;12.326;2024-03-23T03:26:51;6.55;;;3.95;;
15996;SDS011;8103;51.340;12.326;2024-03-23T03:29:16;3.75;;;3.35;;
15996;SDS011;8103;51.340;12.326;2024-03-23T03:31:42;5.43;;;3.25;;
15996;SDS011;8103;51.340;12.326;2024-03-23T03:34:11;6.72;;;3.83;;
15996;SDS011;8103;51.340;12.326;2024-03-23T03:36:37;5.43;;;3.45;;
15996;SDS011;8103;51.340;12.326;2024-03-23T03:39:02;6.07;;;3.90;;
15996;SDS011;8103;51.340;12.326;2024-03-23T03:41:29;7.20;;;3.85;;
15996;SDS011;8103;51.340;12.326;2024-03-23T03:43:56;5.18;;;3.72;;
15996;SDS011;8103;51.340;12.326;2024-03-23T03:46:21;6.20;;;2.92;;
15996;SDS011;8103;51.340;12.326;2024-03-23T03:48:48;4.70;;;3.22;;
15996;SDS011;8103;51.340;12.326;2024-03-23T03:51:13;3.63;;;3.00;;
15996;SDS011;8103;51.340;12.326;2024-03-23T03:53:39;5.72;;;3.30;;
15996;SDS011;8103;51.340;12.326;2024-03-23T03:56:05;4.70;;;2.90;;
15996;SDS011;8103;51.340;12.326;2024-03-23T03:58:31;4.85;;;3.15;;
15996;SDS011;8103;51.340;12.326;2024-03-23T04:00:57;6.53;;;2.97;;
15996;SDS011;8103;51.340;12.326;2024-03-23T04:03:23;3.35;;;1.92;;
15996;SDS011;8103;51.340;12.326;2024-03-23T04:05:52;4.55;;;2.38;;
15996;SDS011;8103;51.340;12.326;2024-03-23T04:08:21;3.42;;;2.22;;
15996;SDS011;8103;51.340;12.326;2024-03-23T04:10:47;5.05;;;2.55;;
15996;SDS011;8103;51.340;12.326;2024-03-23T04:13:13;4.20;;;2.35;;
15996;SDS011;8103;51.340;12.326;2024-03-23T04:15:39;3.70;;;2.40;;
15996;SDS011;8103;51.340;12.326;2024-03-23T04:18:05;3.17;;;2.10;;
15996;SDS011;8103;51.340;12.326;2024-03-23T04:20:31;3.67;;;2.10;;
15996;SDS011;8103;51.340;12.326;2024-03-23T04:22:57;2.72;;;2.30;;
15996;SDS011;8103;51.340;12.326;2024-03-23T04:25:26;5.15;;;2.55;;
15996;SDS011;8103;51.340;12.326;2024-03-23T04:27:52;4.03;;;2.35;;
15996;SDS011;8103;51.340;12.326;2024-03-23T04:30:18;5.03;;;2.63;;
15996;SDS011;8103;51.340;12.326;2024-03-23T04:32:44;6.28;;;2.50;;
15996;SDS011;8103;51.340;12.326;2024-03-23T04:35:10;3.13;;;2.15;;
15996;SDS011;8103;51.340;12.326;2024-03-23T04:37:36;4.20;;;2.50;;
15996;SDS011;8103;51.340;12.326;2024-03-23T04:40:08;4.13;;;2.45;;
15996;SDS011;8103;51.340;12.326;2024-03-23T04:42:34;4.85;;;2.60;;
15996;SDS011;8103;51.340;12.326;2024-03-23T04:45:00;4.93;;;2.67;;
15996;SDS011;8103;51.340;12.326;2024-03-23T04:47:26;5.18;;;2.55;;
15996;SDS011;8103;51.340;12.326;2024-03-23T04:49:52;5.57;;;2.58;;
15996;SDS011;8103;51.340;12.326;2024-03-23T04:52:17;5.82;;;2.45;;
15996;SDS011;8103;51.340;12.326;2024-03-23T04:54:43;5.13;;;2.50;;
15996;SDS011;8103;51.340;12.326;2024-03-23T04:57:10;3.35;;;2.30;;
15996;SDS011;8103;51.340;12.326;2024-03-23T04:59:36;3.58;;;2.00;;
15996;SDS011;8103;51.340;12.326;2024-03-23T05:02:02;3.50;;;2.38;;
15996;SDS011;8103;51.340;12.326;2024-03-23T05:04:28;3.15;;;2.10;;
15996;SDS011;8103;51.340;12.326;2024-03-23T05:06:54;3.92;;;1.98;;
15996;SDS011;8103;51.340;12.326;2024-03-23T05:09:20;5.40;;;2.50;;
15996;SDS011;8103;51.340;12.326;2024-03-23T05:11:46;4.97;;;3.22;;
15996;SDS011;8103;51.340;12.326;2024-03-23T05:17:59;6.28;;;2.88;;
15996;SDS011;8103;51.340;12.326;2024-03-23T05:20:25;5.88;;;2.47;;
15996;SDS011;8103;51.340;12.326;2024-03-23T05:22:51;4.85;;;2.50;;
15996;SDS011;8103;51.340;12.326;2024-03-23T05:25:17;3.75;;;2.45;;
15996;SDS011;8103;51.340;12.326;2024-03-23T05:27:42;4.00;;;2.63;;
15996;SDS011;8103;51.340;12.326;2024-03-23T05:30:08;5.88;;;2.65;;
15996;SDS011;8103;51.340;12.326;2024-03-23T05:32:34;2.45;;;1.73;;
15996;SDS011;8103;51.340;12.326;2024-03-23T05:35:00;2.72;;;2.08;;
15996;SDS011;8103;51.340;12.326;2024-03-23T05:37:26;6.40;;;3.40;;
15996;SDS011;8103;51.340;12.326;2024-03-23T05:39:52;5.95;;;2.72;;
15996;SDS011;8103;51.340;12.326;2024-03-23T05:42:18;4.57;;;2.70;;
15996;SDS011;8103;51.340;12.326;2024-03-23T05:44:44;3.90;;;2.90;;
15996;SDS011;8103;51.340;12.326;2024-03-23T05:47:10;4.30;;;2.75;;
15996;SDS011;8103;51.340;12.326;2024-03-23T05:49:38;5.35;;;3.05;;
15996;SDS011;8103;51.340;12.326;2024-03-23T05:52:04;5.47;;;2.67;;
15996;SDS011;8103;51.340;12.326;2024-03-23T05:54:30;4.00;;;2.67;;
15996;SDS011;8103;51.340;12.326;2024-03-23T05:56:55;5.70;;;2.67;;
15996;SDS011;8103;51.340;12.326;2024-03-23T05:59:21;5.07;;;2.60;;
15996;SDS011;8103;51.340;12.326;2024-03-23T06:01:47;4.00;;;2.80;;
15996;SDS011;8103;51.340;12.326;2024-03-23T06:04:13;4.13;;;3.05;;
15996;SDS011;8103;51.340;12.326;2024-03-23T06:06:41;4.00;;;2.90;;
15996;SDS011;8103;51.340;12.326;2024-03-23T06:09:07;7.75;;;2.80;;
15996;SDS011;8103;51.340;12.326;2024-03-23T06:11:33;4.25;;;3.15;;
15996;SDS011;8103;51.340;12.326;2024-03-23T06:13:58;6.30;;;3.30;;
15996;SDS011;8103;51.340;12.326;2024-03-23T06:16:24;7.47;;;3.30;;
15996;SDS011;8103;51.340;12.326;2024-03-23T06:18:50;5.72;;;3.50;;
15996;SDS011;8103;51.340;12.326;2024-03-23T06:21:16;7.75;;;3.85;;
15996;SDS011;8103;51.340;12.326;2024-03-23T06:23:42;7.72;;;3.17;;
15996;SDS011;8103;51.340;12.326;2024-03-23T06:26:08;5.88;;;2.83;;
15996;SDS011;8103;51.340;12.326;2024-03-23T06:28:34;6.53;;;3.85;;
15996;SDS011;8103;51.340;12.326;2024-03-23T06:30:59;5.47;;;3.80;;
15996;SDS011;8103;51.340;12.326;2024-03-23T06:33:25;8.57;;;4.13;;
15996;SDS011;8103;51.340;12.326;2024-03-23T06:35:51;6.35;;;4.07;;
15996;SDS011;8103;51.340;12.326;2024-03-23T06:38:17;7.07;;;4.25;;
15996;SDS011;8103;51.340;12.326;2024-03-23T06:40:43;5.95;;;3.65;;
15996;SDS011;8103;51.340;12.326;2024-03-23T06:43:13;6.35;;;4.20;;
15996;SDS011;8103;51.340;12.326;2024-03-23T06:45:39;5.35;;;4.03;;
15996;SDS011;8103;51.340;12.326;2024-03-23T06:48:04;6.38;;;4.10;;
15996;SDS011;8103;51.340;12.326;2024-03-23T06:50:33;10.00;;;6.63;;
15996;SDS011;8103;51.340;12.326;2024-03-23T06:52:59;8.85;;;5.30;;
15996;SDS011;8103;51.340;12.326;2024-03-23T06:55:27;7.10;;;4.32;;
15996;SDS011;8103;51.340;12.326;2024-03-23T06:57:53;6.68;;;4.68;;
15996;SDS011;8103;51.340;12.326;2024-03-23T07:00:19;8.23;;;3.85;;
15996;SDS011;8103;51.340;12.326;2024-03-23T07:02:45;9.63;;;5.22;;
15996;SDS011;8103;51.340;12.326;2024-03-23T07:05:10;11.90;;;4.82;;
15996;SDS011;8103;51.340;12.326;2024-03-23T07:07:37;10.43;;;5.13;;
15996;SDS011;8103;51.340;12.326;2024-03-23T07:10:04;9.55;;;5.55;;
15996;SDS011;8103;51.340;12.326;2024-03-23T07:12:31;9.65;;;4.43;;
15996;SDS011;8103;51.340;12.326;2024-03-23T07:14:56;11.23;;;4.68;;
15996;SDS011;8103;51.340;12.326;2024-03-23T07:17:22;5.65;;;3.75;;
15996;SDS011;8103;51.340;12.326;2024-03-23T07:19:54;7.13;;;4.45;;
15996;SDS011;8103;51.340;12.326;2024-03-23T07:22:20;8.77;;;5.35;;
15996;SDS011;8103;51.340;12.326;2024-03-23T07:24:45;10.10;;;3.88;;
15996;SDS011;8103;51.340;12.326;2024-03-23T07:27:11;6.03;;;4.05;;
15996;SDS011;8103;51.340;12.326;2024-03-23T07:29:37;6.18;;;4.68;;
15996;SDS011;8103;51.340;12.326;2024-03-23T07:32:03;15.98;;;5.68;;
15996;SDS011;8103;51.340;12.326;2024-03-23T07:34:29;8.55;;;4.57;;
15996;SDS011;8103;51.340;12.326;2024-03-23T07:36:54;6.78;;;3.80;;
15996;SDS011;8103;51.340;12.326;2024-03-23T07:39:20;6.32;;;3.28;;
15996;SDS011;8103;51.340;12.326;2024-03-23T07:41:46;9.02;;;4.18;;
15996;SDS011;8103;51.340;12.326;2024-03-23T07:44:11;7.90;;;3.90;;
15996;SDS011;8103;51.340;12.326;2024-03-23T07:46:37;7.72;;;3.72;;
15996;SDS011;8103;51.340;12.326;2024-03-23T07:49:06;4.03;;;2.28;;
15996;SDS011;8103;51.340;12.326;2024-03-23T07:51:32;2.72;;;1.45;;
15996;SDS011;8103;51.340;12.326;2024-03-23T07:53:58;6.72;;;1.42;;
15996;SDS011;8103;51.340;12.326;2024-03-23T07:56:24;2.38;;;1.48;;
15996;SDS011;8103;51.340;12.326;2024-03-23T07:58:50;2.90;;;1.40;;
15996;SDS011;8103;51.340;12.326;2024-03-23T08:01:16;2.47;;;1.20;;
15996;SDS011;8103;51.340;12.326;2024-03-23T08:03:45;2.55;;;1.17;;
15996;SDS011;8103;51.340;12.326;2024-03-23T08:06:12;2.33;;;1.50;;
15996;SDS011;8103;51.340;12.326;2024-03-23T08:08:39;3.50;;;1.40;;
15996;SDS011;8103;51.340;12.326;2024-03-23T08:11:06;2.95;;;1.50;;
15996;SDS011;8103;51.340;12.326;2024-03-23T08:13:32;2.83;;;1.10;;
15996;SDS011;8103;51.340;12.326;2024-03-23T08:15:59;1.10;;;1.00;;
15996;SDS011;8103;51.340;12.326;2024-03-23T08:18:25;2.65;;;0.90;;
15996;SDS011;8103;51.340;12.326;2024-03-23T08:20:55;3.00;;;0.90;;
15996;SDS011;8103;51.340;12.326;2024-03-23T08:23:23;1.48;;;0.80;;
15996;SDS011;8103;51.340;12.326;2024-03-23T08:25:50;0.98;;;0.68;;
15996;SDS011;8103;51.340;12.326;2024-03-23T08:28:16;1.77;;;0.88;;
15996;SDS011;8103;51.340;12.326;2024-03-23T08:34:30;1.88;;;0.63;;
15996;SDS011;8103;51.340;12.326;2024-03-23T08:36:55;1.25;;;0.75;;
15996;SDS011;8103;51.340;12.326;2024-03-23T08:39:21;1.65;;;0.70;;
15996;SDS011;8103;51.340;12.326;2024-03-23T08:41:47;2.00;;;0.80;;
15996;SDS011;8103;51.340;12.326;2024-03-23T08:44:13;3.28;;;0.88;;
15996;SDS011;8103;51.340;12.326;2024-03-23T08:46:39;1.75;;;0.90;;
15996;SDS011;8103;51.340;12.326;2024-03-23T08:49:04;3.65;;;1.55;;
15996;SDS011;8103;51.340;12.326;2024-03-23T08:51:30;1.92;;;0.90;;
15996;SDS011;8103;51.340;12.326;2024-03-23T08:53:56;1.70;;;1.25;;
15996;SDS011;8103;51.340;12.326;2024-03-23T08:56:22;1.83;;;0.80;;
15996;SDS011;8103;51.340;12.326;2024-03-23T08:58:47;5.45;;;1.08;;
15996;SDS011;8103;51.340;12.326;2024-03-23T09:01:13;3.55;;;1.10;;
15996;SDS011;8103;51.340;12.326;2024-03-23T09:03:39;1.60;;;0.85;;
15996;SDS011;8103;51.340;12.326;2024-03-23T09:06:08;1.85;;;0.85;;
15996;SDS011;8103;51.340;12.326;2024-03-23T09:08:35;3.20;;;0.98;;
15996;SDS011;8103;51.340;12.326;2024-03-23T09:11:08;1.00;;;0.88;;
15996;SDS011;8103;51.340;12.326;2024-03-23T09:13:36;3.75;;;1.38;;
15996;SDS011;8103;51.340;12.326;2024-03-23T09:16:02;3.42;;;1.27;;
15996;SDS011;8103;51.340;12.326;2024-03-23T09:18:31;3.38;;;1.30;;
15996;SDS011;8103;51.340;12.326;2024-03-23T09:21:00;1.30;;;1.20;;
15996;SDS011;8103;51.340;12.326;2024-03-23T09:23:26;2.63;;;0.85;;
15996;SDS011;8103;51.340;12.326;2024-03-23T09:25:52;0.70;;;0.60;;
15996;SDS011;8103;51.340;12.326;2024-03-23T09:28:18;1.77;;;1.05;;
15996;SDS011;8103;51.340;12.326;2024-03-23T09:30:44;1.95;;;0.80;;
15996;SDS011;8103;51.340;12.326;2024-03-23T09:33:10;2.00;;;1.00;;
15996;SDS011;8103;51.340;12.326;2024-03-23T09:35:39;1.10;;;0.80;;
15996;SDS011;8103;51.340;12.326;2024-03-23T09:38:06;1.20;;;0.90;;
15996;SDS011;8103;51.340;12.326;2024-03-23T09:40:32;2.08;;;0.95;;
15996;SDS011;8103;51.340;12.326;2024-03-23T09:42:58;1.88;;;0.90;;
15996;SDS011;8103;51.340;12.326;2024-03-23T09:45:28;2.35;;;1.52;;
15996;SDS011;8103;51.340;12.326;2024-03-23T09:47:55;1.85;;;1.42;;
15996;SDS011;8103;51.340;12.326;2024-03-23T09:50:21;1.67;;;1.08;;
15996;SDS011;8103;51.340;12.326;2024-03-23T09:52:47;1.77;;;1.08;;
15996;SDS011;8103;51.340;12.326;2024-03-23T09:55:13;1.15;;;1.00;;
15996;SDS011;8103;51.340;12.326;2024-03-23T09:57:42;1.58;;;1.00;;
15996;SDS011;8103;51.340;12.326;2024-03-23T10:00:08;3.42;;;0.98;;
15996;SDS011;8103;51.340;12.326;2024-03-23T10:02:35;1.52;;;1.00;;
15996;SDS011;8103;51.340;12.326;2024-03-23T10:05:01;0.82;;;0.65;;
15996;SDS011;8103;51.340;12.326;2024-03-23T10:07:27;1.67;;;1.20;;
15996;SDS011;8103;51.340;12.326;2024-03-23T10:09:54;0.75;;;0.50;;
15996;SDS011;8103;51.340;12.326;2024-03-23T10:12:20;0.88;;;0.70;;
15996;SDS011;8103;51.340;12.326;2024-03-23T10:14:46;0.80;;;0.50;;
15996;SDS011;8103;51.340;12.326;2024-03-23T10:19:45;0.80;;;0.55;;
15996;SDS011;8103;51.340;12.326;2024-03-23T10:22:22;1.00;;;0.60;;
15996;SDS011;8103;51.340;12.326;2024-03-23T10:24:49;1.42;;;0.73;;
15996;SDS011;8103;51.340;12.326;2024-03-23T10:27:16;1.10;;;1.00;;
15996;SDS011;8103;51.340;12.326;2024-03-23T10:29:46;1.27;;;1.15;;
15996;SDS011;8103;51.340;12.326;2024-03-23T10:32:12;1.80;;;1.70;;
15996;SDS011;8103;51.340;12.326;2024-03-23T10:34:39;2.42;;;2.22;;
15996;SDS011;8103;51.340;12.326;2024-03-23T10:37:06;2.85;;;1.98;;
15996;SDS011;8103;51.340;12.326;2024-03-23T10:39:33;3.85;;;3.10;;
15996;SDS011;8103;51.340;12.326;2024-03-23T10:42:01;2.40;;;2.20;;
15996;SDS011;8103;51.340;12.326;2024-03-23T10:44:31;2.33;;;2.10;;
15996;SDS011;8103;51.340;12.326;2024-03-23T10:46:58;2.92;;;2.13;;
15996;SDS011;8103;51.340;12.326;2024-03-23T10:49:32;2.78;;;1.83;;
15996;SDS011;8103;51.340;12.326;2024-03-23T10:52:04;2.15;;;1.92;;
15996;SDS011;8103;51.340;12.326;2024-03-23T10:54:31;2.10;;;1.67;;
15996;SDS011;8103;51.340;12.326;2024-03-23T10:59:29;1.63;;;1.52;;
15996;SDS011;8103;51.340;12.326;2024-03-23T11:01:56;1.75;;;1.60;;
15996;SDS011;8103;51.340;12.326;2024-03-23T11:04:32;2.05;;;1.63;;
15996;SDS011;8103;51.340;12.326;2024-03-23T11:07:00;1.50;;;1.13;;
15996;SDS011;8103;51.340;12.326;2024-03-23T11:12:16;1.10;;;1.05;;
15996;SDS011;8103;51.340;12.326;2024-03-23T11:14:57;3.35;;;1.23;;
15996;SDS011;8103;51.340;12.326;2024-03-23T11:17:28;3.70;;;1.35;;
15996;SDS011;8103;51.340;12.326;2024-03-23T11:25:15;1.20;;;0.93;;
15996;SDS011;8103;51.340;12.326;2024-03-23T11:27:45;2.33;;;1.40;;
15996;SDS011;8103;51.340;12.326;2024-03-23T11:30:12;2.80;;;1.20;;
15996;SDS011;8103;51.340;12.326;2024-03-23T11:32:38;3.10;;;1.45;;
15996;SDS011;8103;51.340;12.326;2024-03-23T11:35:04;2.85;;;1.38;;
15996;SDS011;8103;51.340;12.326;2024-03-23T11:37:30;4.22;;;0.98;;
15996;SDS011;8103;51.340;12.326;2024-03-23T11:39:56;3.00;;;1.60;;
15996;SDS011;8103;51.340;12.326;2024-03-23T11:42:22;5.60;;;1.80;;
15996;SDS011;8103;51.340;12.326;2024-03-23T11:44:48;4.63;;;1.63;;
15996;SDS011;8103;51.340;12.326;2024-03-23T11:47:13;6.70;;;2.13;;
15996;SDS011;8103;51.340;12.326;2024-03-23T11:49:39;2.58;;;1.48;;
15996;SDS011;8103;51.340;12.326;2024-03-23T11:52:07;1.55;;;1.20;;
15996;SDS011;8103;51.340;12.326;2024-03-23T11:54:33;3.50;;;1.30;;
15996;SDS011;8103;51.340;12.326;2024-03-23T11:57:00;1.95;;;0.90;;
15996;SDS011;8103;51.340;12.326;2024-03-23T11:59:30;3.83;;;1.30;;
15996;SDS011;8103;51.340;12.326;2024-03-23T12:01:59;2.78;;;1.42;;
15996;SDS011;8103;51.340;12.326;2024-03-23T12:04:26;3.20;;;1.27;;
15996;SDS011;8103;51.340;12.326;2024-03-23T12:07:08;2.33;;;0.90;;
15996;SDS011;8103;51.340;12.326;2024-03-23T12:09:41;3.83;;;1.33;;
15996;SDS011;8103;51.340;12.326;2024-03-23T12:12:11;3.28;;;1.13;;
15996;SDS011;8103;51.340;12.326;2024-03-23T12:14:45;1.52;;;0.88;;
15996;SDS011;8103;51.340;12.326;2024-03-23T12:17:31;3.05;;;0.90;;
15996;SDS011;8103;51.340;12.326;2024-03-23T12:19:57;1.25;;;0.85;;
15996;SDS011;8103;51.340;12.326;2024-03-23T12:22:24;1.23;;;1.00;;
15996;SDS011;8103;51.340;12.326;2024-03-23T12:24:50;1.65;;;0.80;;
15996;SDS011;8103;51.340;12.326;2024-03-23T12:27:16;1.52;;;0.70;;
15996;SDS011;8103;51.340;12.326;2024-03-23T12:29:42;2.53;;;1.17;;
15996;SDS011;8103;51.340;12.326;2024-03-23T12:32:12;4.18;;;1.50;;
15996;SDS011;8103;51.340;12.326;2024-03-23T12:34:38;2.85;;;0.93;;
15996;SDS011;8103;51.340;12.326;2024-03-23T12:37:04;4.57;;;1.63;;
15996;SDS011;8103;51.340;12.326;2024-03-23T12:39:33;2.40;;;1.42;;
15996;SDS011;8103;51.340;12.326;2024-03-23T12:42:00;3.35;;;1.48;;
15996;SDS011;8103;51.340;12.326;2024-03-23T12:44:26;3.15;;;1.05;;
15996;SDS011;8103;51.340;12.326;2024-03-23T12:46:52;3.65;;;1.25;;
15996;SDS011;8103;51.340;12.326;2024-03-23T12:49:18;2.50;;;1.15;;
15996;SDS011;8103;51.340;12.326;2024-03-23T12:51:47;1.13;;;0.90;;
15996;SDS011;8103;51.340;12.326;2024-03-23T12:54:21;2.10;;;1.25;;
15996;SDS011;8103;51.340;12.326;2024-03-23T12:56:47;3.20;;;1.52;;
15996;SDS011;8103;51.340;12.326;2024-03-23T12:59:13;2.13;;;1.40;;
15996;SDS011;8103;51.340;12.326;2024-03-23T13:01:39;4.72;;;1.95;;
15996;SDS011;8103;51.340;12.326;2024-03-23T13:04:05;4.53;;;1.52;;
15996;SDS011;8103;51.340;12.326;2024-03-23T13:06:31;3.00;;;1.70;;
15996;SDS011;8103;51.340;12.326;2024-03-23T13:09:00;4.07;;;1.73;;
15996;SDS011;8103;51.340;12.326;2024-03-23T13:11:27;2.65;;;1.55;;
15996;SDS011;8103;51.340;12.326;2024-03-23T13:13:54;3.20;;;1.83;;
15996;SDS011;8103;51.340;12.326;2024-03-23T13:16:20;5.28;;;2.90;;
15996;SDS011;8103;51.340;12.326;2024-03-23T13:18:45;5.57;;;1.98;;
15996;SDS011;8103;51.340;12.326;2024-03-23T13:21:11;6.50;;;2.28;;
15996;SDS011;8103;51.340;12.326;2024-03-23T13:23:37;7.82;;;2.38;;
15996;SDS011;8103;51.340;12.326;2024-03-23T13:26:06;4.15;;;2.25;;
15996;SDS011;8103;51.340;12.326;2024-03-23T13:28:33;6.13;;;2.80;;
15996;SDS011;8103;51.340;12.326;2024-03-23T13:30:59;7.45;;;2.35;;
15996;SDS011;8103;51.340;12.326;2024-03-23T13:33:28;7.03;;;2.17;;
15996;SDS011;8103;51.340;12.326;2024-03-23T13:35:59;5.32;;;2.40;;
15996;SDS011;8103;51.340;12.326;2024-03-23T13:38:25;3.88;;;2.30;;
15996;SDS011;8103;51.340;12.326;2024-03-23T13:41:00;5.50;;;2.22;;
15996;SDS011;8103;51.340;12.326;2024-03-23T13:43:27;5.22;;;2.25;;
15996;SDS011;8103;51.340;12.326;2024-03-23T13:45:54;5.60;;;2.63;;
15996;SDS011;8103;51.340;12.326;2024-03-23T13:48:21;7.35;;;2.35;;
15996;SDS011;8103;51.340;12.326;2024-03-23T13:51:01;5.78;;;2.85;;
15996;SDS011;8103;51.340;12.326;2024-03-23T13:53:29;6.65;;;3.45;;
15996;SDS011;8103;51.340;12.326;2024-03-23T13:55:55;6.60;;;3.08;;
15996;SDS011;8103;51.340;12.326;2024-03-23T13:58:21;9.50;;;3.22;;
15996;SDS011;8103;51.340;12.326;2024-03-23T14:00:47;3.40;;;2.38;;
15996;SDS011;8103;51.340;12.326;2024-03-23T14:03:13;4.45;;;2.15;;
15996;SDS011;8103;51.340;12.326;2024-03-23T14:09:26;2.38;;;2.00;;
15996;SDS011;8103;51.340;12.326;2024-03-23T14:11:52;2.72;;;1.70;;
15996;SDS011;8103;51.340;12.326;2024-03-23T14:14:17;3.53;;;1.65;;
15996;SDS011;8103;51.340;12.326;2024-03-23T14:16:43;3.25;;;2.33;;
15996;SDS011;8103;51.340;12.326;2024-03-23T14:19:09;4.57;;;2.58;;
15996;SDS011;8103;51.340;12.326;2024-03-23T14:21:35;4.45;;;2.50;;
15996;SDS011;8103;51.340;12.326;2024-03-23T14:24:01;4.93;;;2.90;;
15996;SDS011;8103;51.340;12.326;2024-03-23T14:26:27;5.70;;;3.35;;
15996;SDS011;8103;51.340;12.326;2024-03-23T14:28:53;13.05;;;3.83;;
15996;SDS011;8103;51.340;12.326;2024-03-23T14:31:19;5.32;;;2.58;;
15996;SDS011;8103;51.340;12.326;2024-03-23T14:33:45;2.95;;;1.75;;
15996;SDS011;8103;51.340;12.326;2024-03-23T14:36:15;1.65;;;1.55;;
15996;SDS011;8103;51.340;12.326;2024-03-23T14:38:42;4.55;;;2.10;;
15996;SDS011;8103;51.340;12.326;2024-03-23T14:41:12;2.92;;;1.92;;
15996;SDS011;8103;51.340;12.326;2024-03-23T14:43:38;3.47;;;2.28;;
15996;SDS011;8103;51.340;12.326;2024-03-23T14:48:33;3.83;;;2.45;;
15996;SDS011;8103;51.340;12.326;2024-03-23T14:51:00;4.88;;;2.50;;
15996;SDS011;8103;51.340;12.326;2024-03-23T14:53:26;5.70;;;1.88;;
15996;SDS011;8103;51.340;12.326;2024-03-23T14:55:55;4.45;;;2.00;;
15996;SDS011;8103;51.340;12.326;2024-03-23T14:58:22;2.38;;;2.00;;
15996;SDS011;8103;51.340;12.326;2024-03-23T15:00:51;5.53;;;2.58;;
15996;SDS011;8103;51.340;12.326;2024-03-23T15:03:19;5.32;;;2.25;;
15996;SDS011;8103;51.340;12.326;2024-03-23T15:05:51;4.68;;;3.05;;
15996;SDS011;8103;51.340;12.326;2024-03-23T15:08:18;22.02;;;3.80;;
15996;SDS011;8103;51.340;12.326;2024-03-23T15:10:45;3.03;;;2.10;;
15996;SDS011;8103;51.340;12.326;2024-03-23T15:13:10;3.80;;;2.78;;
15996;SDS011;8103;51.340;12.326;2024-03-23T15:15:40;6.28;;;2.53;;
15996;SDS011;8103;51.340;12.326;2024-03-23T15:18:09;3.70;;;2.40;;
15996;SDS011;8103;51.340;12.326;2024-03-23T15:20:39;4.28;;;2.28;;
15996;SDS011;8103;51.340;12.326;2024-03-23T15:23:04;4.05;;;3.40;;
15996;SDS011;8103;51.340;12.326;2024-03-23T15:25:30;3.15;;;2.40;;
15996;SDS011;8103;51.340;12.326;2024-03-23T15:27:57;4.13;;;2.42;;
15996;SDS011;8103;51.340;12.326;2024-03-23T15:30:24;5.63;;;2.35;;
15996;SDS011;8103;51.340;12.326;2024-03-23T15:32:50;4.88;;;2.50;;
15996;SDS011;8103;51.340;12.326;2024-03-23T15:35:16;5.13;;;2.63;;
15996;SDS011;8103;51.340;12.326;2024-03-23T15:37:41;4.53;;;3.05;;
15996;SDS011;8103;51.340;12.326;2024-03-23T15:40:08;7.53;;;4.30;;
15996;SDS011;8103;51.340;12.326;2024-03-23T15:42:35;4.50;;;3.00;;
15996;SDS011;8103;51.340;12.326;2024-03-23T15:45:01;4.80;;;3.53;;
15996;SDS011;8103;51.340;12.326;2024-03-23T15:47:28;5.45;;;3.15;;
15996;SDS011;8103;51.340;12.326;2024-03-23T15:49:57;3.40;;;2.67;;
15996;SDS011;8103;51.340;12.326;2024-03-23T15:52:23;5.40;;;3.00;;
15996;SDS011;8103;51.340;12.326;2024-03-23T15:54:49;7.03;;;2.80;;
15996;SDS011;8103;51.340;12.326;2024-03-23T15:57:14;5.47;;;2.60;;
15996;SDS011;8103;51.340;12.326;2024-03-23T15:59:41;4.07;;;2.60;;
15996;SDS011;8103;51.340;12.326;2024-03-23T16:02:06;5.10;;;3.85;;
15996;SDS011;8103;51.340;12.326;2024-03-23T16:04:32;6.28;;;4.25;;